createdAt,value
2023-04-19T00:00:22.207Z,63.72
2023-04-19T00:01:26.486Z,64.00
2023-04-19T00:02:29.459Z,64.06
2023-04-19T00:03:32.512Z,64.33
2023-04-19T00:04:36.902Z,63.51
2023-04-19T00:05:41.541Z,64.78
2023-04-19T00:06:44.274Z,64.70
2023-04-19T00:07:46.827Z,65.07
2023-04-19T00:08:48.813Z,65.52
2023-04-19T00:09:51.051Z,65.05
2023-04-19T00:10:53.827Z,64.83
2023-04-19T00:11:55.936Z,64.77
2023-04-19T00:12:58.248Z,65.28
2023-04-19T00:14:00.347Z,65.94
2023-04-19T00:15:02.796Z,65.04
2023-04-19T00:16:06.670Z,65.14
2023-04-19T00:17:10.816Z,64.93
2023-04-19T00:18:13.237Z,65.15
2023-04-19T00:19:15.660Z,65.64
2023-04-19T00:20:18.165Z,65.26
2023-04-19T00:21:20.485Z,65.84
2023-04-19T00:22:22.599Z,65.82
2023-04-19T00:23:25.304Z,65.84
2023-04-19T00:24:28.603Z,66.47
2023-04-19T00:25:31.376Z,67.68
2023-04-19T00:26:33.943Z,67.26
2023-04-19T00:27:36.641Z,66.38
2023-04-19T00:28:38.831Z,66.16
2023-04-19T00:29:40.926Z,65.75
2023-04-19T00:30:43.028Z,65.87
2023-04-19T00:31:46.191Z,67.20
2023-04-19T00:32:48.742Z,66.01
2023-04-19T00:33:52.013Z,66.40
2023-04-19T00:34:54.856Z,66.19
2023-04-19T00:35:58.236Z,66.26
2023-04-19T00:37:00.816Z,67.32
2023-04-19T00:38:02.863Z,66.00
2023-04-19T00:39:05.501Z,66.40
2023-04-19T00:40:09.515Z,66.99
2023-04-19T00:41:12.513Z,67.48
2023-04-19T00:42:15.339Z,67.66
2023-04-19T00:43:19.163Z,67.86
2023-04-19T00:44:21.608Z,66.54
2023-04-19T00:45:24.815Z,67.32
2023-04-19T00:46:27.608Z,67.37
2023-04-19T00:47:30.267Z,67.44
2023-04-19T00:48:35.779Z,68.54
2023-04-19T00:49:38.139Z,67.58
2023-04-19T00:50:43.078Z,67.78
2023-04-19T00:51:46.662Z,67.63
2023-04-19T00:52:49.078Z,68.19
2023-04-19T00:53:52.193Z,67.80
2023-04-19T00:54:57.666Z,67.71
2023-04-19T00:56:04.199Z,68.29
2023-04-19T00:57:06.576Z,68.88
2023-04-19T00:58:12.037Z,68.53
2023-04-19T00:59:15.615Z,69.08
2023-04-19T01:00:19.291Z,68.49
2023-04-19T01:01:23.108Z,67.16
2023-04-19T01:02:25.561Z,67.65
2023-04-19T01:03:28.694Z,67.85
2023-04-19T01:04:31.614Z,68.52
2023-04-19T01:05:34.244Z,69.24
2023-04-19T01:06:38.049Z,69.09
2023-04-19T01:07:41.152Z,67.57
2023-04-19T01:08:43.704Z,68.40
2023-04-19T01:09:46.634Z,68.45
2023-04-19T01:10:49.528Z,68.96
2023-04-19T01:11:51.904Z,70.29
2023-04-19T01:12:53.994Z,68.24
2023-04-19T01:13:57.966Z,68.04
2023-04-19T01:15:00.103Z,67.86
2023-04-19T01:16:02.259Z,68.29
2023-04-19T01:17:05.226Z,68.16
2023-04-19T01:18:07.558Z,68.00
2023-04-19T01:19:09.822Z,67.71
2023-04-19T01:20:12.941Z,67.74
2023-04-19T01:21:16.240Z,68.39
2023-04-19T01:22:23.086Z,69.26
2023-04-19T01:23:25.864Z,68.80
2023-04-19T01:24:28.320Z,69.82
2023-04-19T01:25:30.710Z,68.19
2023-04-19T01:26:34.974Z,68.70
2023-04-19T01:27:39.546Z,67.77
2023-04-19T01:28:41.895Z,68.32
2023-04-19T01:29:45.396Z,68.29
2023-04-19T01:30:49.672Z,68.31
2023-04-19T01:31:53.779Z,69.25
2023-04-19T01:32:56.238Z,69.20
2023-04-19T01:33:58.805Z,68.97
2023-04-19T01:35:01.241Z,69.45
2023-04-19T01:36:06.319Z,69.35
2023-04-19T01:37:09.631Z,69.47
2023-04-19T01:38:11.838Z,69.40
2023-04-19T01:39:16.273Z,70.50
2023-04-19T01:40:19.887Z,70.22
2023-04-19T01:41:24.038Z,69.15
2023-04-19T01:42:26.638Z,69.76
2023-04-19T01:43:29.257Z,69.54
2023-04-19T01:44:31.618Z,69.07
2023-04-19T01:45:37.399Z,68.90
2023-04-19T01:46:42.135Z,69.16
2023-04-19T01:47:45.291Z,69.21
2023-04-19T01:48:47.460Z,69.55
2023-04-19T01:49:50.432Z,69.12
2023-04-19T01:50:53.179Z,69.10
2023-04-19T01:51:55.653Z,69.50
2023-04-19T01:52:58.369Z,70.34
2023-04-19T01:54:02.129Z,70.09
2023-04-19T01:55:05.075Z,70.27
2023-04-19T01:56:10.452Z,70.62
2023-04-19T01:57:13.321Z,69.89
2023-04-19T01:58:15.993Z,70.18
2023-04-19T01:59:18.116Z,70.90
2023-04-19T02:00:21.698Z,69.48
2023-04-19T02:01:24.147Z,69.69
2023-04-19T02:02:27.260Z,69.95
2023-04-19T02:03:30.536Z,70.01
2023-04-19T02:04:36.363Z,69.77
2023-04-19T02:05:40.465Z,70.38
2023-04-19T02:06:42.908Z,69.79
2023-04-19T02:07:45.517Z,70.16
2023-04-19T02:08:48.929Z,69.95
2023-04-19T02:09:51.385Z,69.59
2023-04-19T02:10:55.219Z,69.87
2023-04-19T02:11:58.576Z,69.56
2023-04-19T02:13:02.005Z,69.57
2023-04-19T02:14:05.039Z,69.71
2023-04-19T02:15:08.137Z,69.71
2023-04-19T02:16:11.906Z,69.86
2023-04-19T02:17:14.256Z,70.06
2023-04-19T02:18:17.021Z,71.16
2023-04-19T02:19:20.637Z,70.43
2023-04-19T02:20:23.937Z,72.66
2023-04-19T02:21:26.906Z,72.66
2023-04-19T02:22:29.687Z,73.49
2023-04-19T02:23:32.013Z,72.33
2023-04-19T02:24:35.379Z,72.87
2023-04-19T02:25:37.878Z,72.17
2023-04-19T02:26:40.338Z,72.34
2023-04-19T02:27:42.791Z,72.29
2023-04-19T02:28:45.582Z,72.25
2023-04-19T02:29:48.060Z,71.31
2023-04-19T02:30:50.491Z,71.44
2023-04-19T02:31:52.888Z,71.42
2023-04-19T02:32:55.558Z,71.37
2023-04-19T02:33:58.142Z,70.45
2023-04-19T02:35:01.935Z,69.71
2023-04-19T02:36:05.820Z,70.33
2023-04-19T02:37:08.958Z,69.79
2023-04-19T02:38:11.160Z,71.25
2023-04-19T02:39:14.419Z,71.59
2023-04-19T02:40:16.974Z,71.32
2023-04-19T02:41:20.639Z,70.64
2023-04-19T02:42:23.356Z,70.64
2023-04-19T02:43:25.993Z,70.65
2023-04-19T02:44:28.342Z,70.89
2023-04-19T02:45:30.950Z,70.81
2023-04-19T02:46:33.287Z,70.75
2023-04-19T02:47:35.845Z,71.08
2023-04-19T02:48:38.746Z,70.38
2023-04-19T02:49:42.119Z,70.68
2023-04-19T02:50:45.296Z,69.93
2023-04-19T02:51:47.808Z,70.07
2023-04-19T02:52:50.260Z,69.10
2023-04-19T02:53:53.034Z,69.74
2023-04-19T02:54:55.760Z,69.83
2023-04-19T02:55:58.256Z,70.30
2023-04-19T02:57:01.297Z,69.80
2023-04-19T02:58:04.943Z,70.79
2023-04-19T02:59:08.985Z,71.35
2023-04-19T03:00:12.885Z,70.73
2023-04-19T03:01:17.552Z,69.68
2023-04-19T03:02:21.150Z,69.57
2023-04-19T03:03:23.595Z,70.69
2023-04-19T03:04:26.500Z,70.77
2023-04-19T03:05:29.358Z,71.05
2023-04-19T03:06:32.284Z,71.16
2023-04-19T03:07:35.491Z,71.14
2023-04-19T03:08:38.185Z,71.21
2023-04-19T03:09:41.029Z,72.09
2023-04-19T03:10:43.724Z,71.55
2023-04-19T03:11:46.021Z,71.79
2023-04-19T03:12:48.341Z,71.49
2023-04-19T03:13:51.061Z,71.58
2023-04-19T03:14:53.161Z,70.34
2023-04-19T03:15:56.705Z,70.33
2023-04-19T03:16:59.128Z,70.34
2023-04-19T03:18:01.978Z,70.21
2023-04-19T03:19:06.155Z,70.56
2023-04-19T03:20:11.930Z,70.62
2023-04-19T03:21:14.565Z,70.16
2023-04-19T03:22:18.716Z,69.84
2023-04-19T03:23:21.605Z,69.53
2023-04-19T03:24:31.393Z,69.47
2023-04-19T03:25:35.484Z,70.19
2023-04-19T03:26:48.739Z,71.16
2023-04-19T03:27:52.539Z,71.07
2023-04-19T03:28:56.730Z,71.14
2023-04-19T03:30:04.754Z,71.02
2023-04-19T03:31:07.580Z,70.80
2023-04-19T03:32:11.513Z,71.10
2023-04-19T03:33:13.976Z,70.96
2023-04-19T03:34:17.121Z,70.22
2023-04-19T03:35:23.309Z,69.78
2023-04-19T03:36:27.276Z,70.17
2023-04-19T03:37:29.703Z,70.13
2023-04-19T03:38:32.002Z,69.47
2023-04-19T03:39:35.248Z,69.97
2023-04-19T03:40:39.600Z,69.95
2023-04-19T03:41:42.684Z,70.04
2023-04-19T03:42:56.060Z,70.51
2023-04-19T03:44:02.947Z,70.90
2023-04-19T03:45:06.321Z,70.19
2023-04-19T03:46:10.505Z,70.17
2023-04-19T03:47:13.134Z,70.29
2023-04-19T03:48:17.321Z,70.54
2023-04-19T03:49:21.232Z,68.97
2023-04-19T03:50:25.492Z,69.55
2023-04-19T03:51:30.987Z,69.17
2023-04-19T03:52:33.413Z,68.85
2023-04-19T03:53:37.718Z,68.66
2023-04-19T03:54:40.454Z,68.71
2023-04-19T03:55:45.316Z,68.35
2023-04-19T03:56:47.878Z,68.71
2023-04-19T03:57:50.879Z,68.90
2023-04-19T03:59:10.329Z,68.99
2023-04-19T04:00:15.192Z,68.97
2023-04-19T04:01:18.669Z,69.11
2023-04-19T04:02:22.112Z,69.03
2023-04-19T04:03:24.756Z,69.51
2023-04-19T04:04:28.758Z,69.39
2023-04-19T04:05:31.842Z,69.96
2023-04-19T04:06:35.554Z,69.29
2023-04-19T04:07:37.679Z,69.00
2023-04-19T04:08:40.189Z,68.90
2023-04-19T04:09:42.635Z,69.20
2023-04-19T04:10:45.379Z,69.19
2023-04-19T04:11:48.675Z,70.42
2023-04-19T04:12:51.578Z,70.08
2023-04-19T04:13:56.682Z,70.01
2023-04-19T04:15:00.893Z,70.33
2023-04-19T04:16:04.338Z,71.41
2023-04-19T04:17:07.823Z,70.76
2023-04-19T04:18:11.161Z,70.69
2023-04-19T04:19:14.116Z,69.38
2023-04-19T04:20:18.496Z,69.23
2023-04-19T04:21:21.966Z,70.03
2023-04-19T04:22:24.125Z,67.15
2023-04-19T04:23:27.954Z,67.16
2023-04-19T04:24:32.572Z,68.30
2023-04-19T04:25:37.700Z,67.49
2023-04-19T04:26:41.811Z,67.32
2023-04-19T04:27:52.057Z,66.25
2023-04-19T04:28:55.685Z,65.74
2023-04-19T04:29:58.028Z,65.87
2023-04-19T04:31:01.042Z,65.66
2023-04-19T04:32:10.156Z,66.05
2023-04-19T04:33:15.138Z,64.79
2023-04-19T04:34:18.184Z,65.06
2023-04-19T04:35:22.565Z,64.50
2023-04-19T04:36:28.747Z,64.85
2023-04-19T04:37:35.362Z,64.03
2023-04-19T04:38:37.689Z,63.97
2023-04-19T04:39:40.944Z,63.93
2023-04-19T04:40:53.546Z,64.90
2023-04-19T04:41:57.259Z,64.27
2023-04-19T04:43:02.019Z,64.07
2023-04-19T04:44:22.558Z,63.93
2023-04-19T04:45:12.488Z,64.88
2023-04-19T04:46:15.927Z,64.39
2023-04-19T04:47:18.850Z,64.47
2023-04-19T04:48:23.906Z,64.74
2023-04-19T04:49:26.311Z,64.39
2023-04-19T04:50:28.843Z,64.17
2023-04-19T04:51:31.832Z,64.40
2023-04-19T04:52:34.796Z,64.71
2023-04-19T04:53:38.930Z,64.29
2023-04-19T04:54:41.333Z,64.27
2023-04-19T04:55:46.613Z,64.24
2023-04-19T04:56:49.624Z,63.88
2023-04-19T04:57:52.096Z,63.91
2023-04-19T04:58:57.451Z,64.08
2023-04-19T05:00:02.786Z,63.43
2023-04-19T05:01:06.834Z,63.42
2023-04-19T05:02:11.620Z,63.28
2023-04-19T05:03:15.979Z,63.21
2023-04-19T05:04:20.971Z,62.94
2023-04-19T05:05:23.554Z,63.08
2023-04-19T05:06:26.345Z,63.11
2023-04-19T05:07:29.110Z,62.99
2023-04-19T05:08:33.862Z,62.30
2023-04-19T05:09:38.083Z,62.50
2023-04-19T05:10:40.503Z,62.16
2023-04-19T05:11:44.074Z,61.94
2023-04-19T05:12:46.482Z,61.79
2023-04-19T05:13:49.320Z,61.78
2023-04-19T05:14:53.361Z,61.67
2023-04-19T05:15:56.748Z,61.67
2023-04-19T05:17:00.411Z,62.18
2023-04-19T05:18:03.164Z,62.09
2023-04-19T05:19:05.536Z,61.88
2023-04-19T05:20:10.635Z,61.61
2023-04-19T05:21:13.531Z,61.60
2023-04-19T05:22:17.515Z,61.46
2023-04-19T05:23:20.793Z,61.53
2023-04-19T05:24:23.659Z,61.74
2023-04-19T05:25:26.908Z,61.72
2023-04-19T05:26:29.812Z,61.84
2023-04-19T05:27:32.457Z,61.53
2023-04-19T05:28:34.671Z,61.71
2023-04-19T05:29:39.069Z,61.86
2023-04-19T05:30:42.170Z,61.01
2023-04-19T05:31:45.244Z,60.97
2023-04-19T05:32:56.079Z,60.89
2023-04-19T05:33:58.440Z,60.66
2023-04-19T05:35:02.333Z,60.13
2023-04-19T05:36:06.015Z,60.35
2023-04-19T05:37:08.555Z,60.55
2023-04-19T05:38:11.309Z,60.94
2023-04-19T05:39:13.837Z,61.19
2023-04-19T05:40:18.681Z,61.54
2023-04-19T05:41:21.706Z,61.53
2023-04-19T05:42:24.618Z,61.38
2023-04-19T05:43:27.796Z,61.48
2023-04-19T05:44:31.158Z,61.50
2023-04-19T05:45:33.587Z,61.63
2023-04-19T05:46:36.318Z,61.89
2023-04-19T05:47:40.245Z,61.36
2023-04-19T05:49:01.368Z,61.13
2023-04-19T05:50:22.557Z,61.55
2023-04-19T05:51:29.870Z,61.59
2023-04-19T05:52:46.314Z,61.80
2023-04-19T05:53:49.734Z,61.71
2023-04-19T05:54:52.309Z,61.23
2023-04-19T05:55:54.643Z,61.56
2023-04-19T05:56:57.058Z,61.89
2023-04-19T05:57:59.466Z,61.93
2023-04-19T05:59:03.716Z,61.70
2023-04-19T06:00:09.549Z,62.04
2023-04-19T06:01:29.600Z,62.26
2023-04-19T06:02:33.228Z,61.48
2023-04-19T06:03:36.617Z,60.74
2023-04-19T06:04:40.655Z,60.48
2023-04-19T06:05:44.225Z,60.60
2023-04-19T06:06:47.366Z,60.60
2023-04-19T06:07:55.758Z,60.13
2023-04-19T06:08:55.765Z,60.49
2023-04-19T06:09:58.728Z,60.21
2023-04-19T06:11:11.524Z,59.42
2023-04-19T06:12:06.412Z,59.77
2023-04-19T06:13:08.631Z,60.24
2023-04-19T06:14:13.055Z,60.29
2023-04-19T06:15:17.697Z,59.82
2023-04-19T06:16:20.969Z,60.08
2023-04-19T06:17:25.568Z,60.06
2023-04-19T06:18:29.231Z,60.27
2023-04-19T06:19:33.938Z,59.95
2023-04-19T06:20:37.537Z,59.22
2023-04-19T06:21:39.828Z,59.29
2023-04-19T06:22:44.493Z,59.76
2023-04-19T06:23:46.579Z,60.35
2023-04-19T06:24:48.902Z,60.58
2023-04-19T06:25:51.104Z,60.71
2023-04-19T06:26:53.809Z,60.65
2023-04-19T06:27:56.621Z,60.33
2023-04-19T06:28:59.474Z,60.34
2023-04-19T06:30:03.597Z,60.32
2023-04-19T06:31:06.851Z,59.96
2023-04-19T06:32:11.302Z,59.80
2023-04-19T06:33:13.706Z,60.09
2023-04-19T06:34:16.042Z,60.38
2023-04-19T06:35:18.711Z,60.59
2023-04-19T06:36:21.057Z,60.82
2023-04-19T06:37:23.412Z,60.42
2023-04-19T06:38:26.790Z,60.08
2023-04-19T06:39:29.046Z,60.33
2023-04-19T06:40:31.478Z,60.14
2023-04-19T06:41:33.809Z,60.25
2023-04-19T06:42:36.055Z,59.96
2023-04-19T06:43:40.248Z,60.10
2023-04-19T06:44:42.575Z,60.27
2023-04-19T06:45:45.023Z,60.13
2023-04-19T06:46:47.546Z,60.31
2023-04-19T06:47:49.905Z,60.13
2023-04-19T06:48:52.111Z,59.66
2023-04-19T06:49:55.640Z,59.51
2023-04-19T06:50:58.369Z,59.89
2023-04-19T06:52:00.726Z,59.61
2023-04-19T06:53:04.982Z,59.84
2023-04-19T06:54:07.680Z,60.22
2023-04-19T06:55:10.443Z,60.48
2023-04-19T06:56:14.100Z,60.48
2023-04-19T06:57:18.366Z,60.53
2023-04-19T06:58:20.983Z,60.18
2023-04-19T06:59:25.189Z,60.25
2023-04-19T07:00:27.462Z,60.39
2023-04-19T07:01:29.832Z,60.18
2023-04-19T07:02:32.456Z,60.56
2023-04-19T07:03:36.183Z,60.38
2023-04-19T07:04:38.778Z,60.64
2023-04-19T07:05:41.431Z,60.46
2023-04-19T07:06:43.766Z,60.29
2023-04-19T07:07:46.076Z,61.01
2023-04-19T07:08:50.088Z,61.25
2023-04-19T07:09:52.526Z,61.10
2023-04-19T07:10:56.115Z,60.44
2023-04-19T07:11:58.405Z,60.97
2023-04-19T07:13:00.803Z,60.64
2023-04-19T07:14:03.561Z,60.36
2023-04-19T07:15:07.411Z,59.77
2023-04-19T07:16:10.754Z,59.60
2023-04-19T07:17:13.827Z,59.37
2023-04-19T07:18:16.118Z,59.55
2023-04-19T07:19:20.372Z,59.58
2023-04-19T07:20:22.778Z,59.80
2023-04-19T07:21:26.996Z,59.76
2023-04-19T07:22:29.818Z,59.29
2023-04-19T07:23:32.587Z,59.55
2023-04-19T07:24:34.906Z,59.03
2023-04-19T07:25:37.214Z,59.05
2023-04-19T07:26:39.979Z,58.81
2023-04-19T07:27:42.772Z,58.71
2023-04-19T07:28:45.311Z,58.93
2023-04-19T07:29:48.324Z,58.70
2023-04-19T07:30:50.793Z,58.69
2023-04-19T07:31:55.352Z,58.77
2023-04-19T07:32:58.412Z,58.58
2023-04-19T07:34:01.018Z,58.80
2023-04-19T07:35:03.563Z,58.58
2023-04-19T07:36:07.401Z,58.80
2023-04-19T07:37:10.011Z,58.80
2023-04-19T07:38:12.225Z,58.20
2023-04-19T07:39:14.655Z,58.33
2023-04-19T07:40:17.086Z,58.22
2023-04-19T07:41:19.682Z,58.03
2023-04-19T07:42:22.079Z,57.42
2023-04-19T07:43:24.330Z,57.04
2023-04-19T07:44:28.355Z,56.20
2023-04-19T07:45:31.317Z,56.26
2023-04-19T07:46:33.817Z,55.79
2023-04-19T07:47:36.713Z,55.36
2023-04-19T07:48:39.374Z,55.92
2023-04-19T07:49:43.603Z,56.26
2023-04-19T07:50:46.085Z,55.17
2023-04-19T07:51:48.785Z,55.02
2023-04-19T07:52:51.557Z,55.16
2023-04-19T07:53:54.597Z,55.12
2023-04-19T07:54:57.408Z,54.98
2023-04-19T07:55:59.695Z,54.42
2023-04-19T07:57:02.744Z,54.60
2023-04-19T07:58:05.124Z,54.30
2023-04-19T07:59:09.000Z,54.48
2023-04-19T08:00:12.629Z,54.20
2023-04-19T08:01:17.343Z,55.09
2023-04-19T08:02:20.595Z,54.82
2023-04-19T08:03:23.246Z,55.36
2023-04-19T08:04:27.059Z,54.60
2023-04-19T08:05:30.956Z,54.73
2023-04-19T08:06:33.887Z,54.89
2023-04-19T08:07:36.275Z,54.10
2023-04-19T08:08:38.442Z,54.06
2023-04-19T08:09:41.074Z,53.64
2023-04-19T08:10:44.269Z,54.03
2023-04-19T08:11:46.450Z,55.42
2023-04-19T08:13:03.757Z,55.03
2023-04-19T08:14:06.696Z,57.00
2023-04-19T08:15:05.198Z,54.26
2023-04-19T08:17:24.348Z,55.33
2023-04-19T08:18:10.781Z,56.84
2023-04-19T08:19:12.974Z,53.54
2023-04-19T08:20:15.607Z,52.63
2023-04-19T08:21:18.161Z,52.16
2023-04-19T08:22:22.077Z,52.59
2023-04-19T08:23:31.746Z,55.49
2023-04-19T08:24:30.696Z,52.52
2023-04-19T08:25:33.321Z,50.56
2023-04-19T08:26:35.750Z,52.22
2023-04-19T08:27:38.403Z,53.59
2023-04-19T08:28:40.919Z,52.38
2023-04-19T08:29:43.364Z,52.91
2023-04-19T08:30:45.709Z,52.91
2023-04-19T08:31:48.157Z,53.32
2023-04-19T08:32:56.892Z,56.21
2023-04-19T08:34:00.748Z,53.15
2023-04-19T08:35:03.697Z,52.77
2023-04-19T08:36:07.182Z,54.45
2023-04-19T08:37:10.633Z,55.52
2023-04-19T08:38:13.445Z,53.67
2023-04-19T08:39:29.185Z,52.76
2023-04-19T08:40:21.693Z,54.01
2023-04-19T08:41:26.281Z,53.27
2023-04-19T08:42:36.313Z,54.94
2023-04-19T08:43:36.690Z,52.84
2023-04-19T08:44:49.217Z,52.40
2023-04-19T08:45:51.171Z,53.42
2023-04-19T08:46:53.957Z,53.44
2023-04-19T08:48:01.477Z,53.59
2023-04-19T08:49:07.942Z,52.16
2023-04-19T08:51:17.559Z,51.22
2023-04-19T08:52:21.639Z,53.54
2023-04-19T08:53:26.306Z,50.67
2023-04-19T08:54:32.183Z,51.72
2023-04-19T08:55:36.243Z,51.02
2023-04-19T08:56:39.131Z,50.53
2023-04-19T08:57:41.802Z,49.98
2023-04-19T08:59:00.384Z,50.12
2023-04-19T08:59:50.030Z,51.22
2023-04-19T09:00:53.377Z,51.54
2023-04-19T09:01:57.375Z,51.00
2023-04-19T09:02:59.834Z,52.24
2023-04-19T09:04:20.812Z,51.27
2023-04-19T09:05:14.057Z,51.69
2023-04-19T09:06:17.554Z,52.48
2023-04-19T09:07:26.704Z,52.86
2023-04-19T09:08:30.869Z,52.07
2023-04-19T09:09:43.109Z,52.23
2023-04-19T09:10:45.218Z,52.02
2023-04-19T09:11:52.412Z,52.51
2023-04-19T09:13:03.786Z,51.15
2023-04-19T09:14:11.758Z,51.81
2023-04-19T09:15:15.739Z,50.92
2023-04-19T09:16:25.465Z,49.79
2023-04-19T09:17:28.543Z,49.55
2023-04-19T09:18:33.134Z,49.48
2023-04-19T09:20:49.582Z,49.33
2023-04-19T09:21:53.304Z,50.71
2023-04-19T09:23:09.097Z,51.01
2023-04-19T09:24:11.358Z,50.85
2023-04-19T09:25:41.845Z,49.87
2023-04-19T09:26:30.566Z,49.58
2023-04-19T09:27:35.766Z,49.84
2023-04-19T09:28:39.112Z,49.83
2023-04-19T09:29:41.695Z,50.28
2023-04-19T09:30:58.270Z,51.14
2023-04-19T09:31:58.357Z,50.64
2023-04-19T09:33:01.302Z,49.61
2023-04-19T09:34:15.910Z,49.40
2023-04-19T09:35:18.732Z,49.23
2023-04-19T09:36:31.606Z,48.98
2023-04-19T09:38:49.616Z,48.85
2023-04-19T09:39:53.130Z,48.48
2023-04-19T09:41:10.700Z,48.33
2023-04-19T09:42:13.137Z,48.06
2023-04-19T09:43:53.150Z,48.18
2023-04-19T09:45:44.583Z,47.88
2023-04-19T09:46:51.628Z,48.48
2023-04-19T09:48:08.105Z,47.71
2023-04-19T09:49:33.717Z,47.69
2023-04-19T09:50:33.690Z,47.04
2023-04-19T09:51:48.014Z,47.53
2023-04-19T09:52:52.691Z,47.17
2023-04-19T09:53:56.089Z,47.99
2023-04-19T09:55:03.102Z,47.44
2023-04-19T09:56:09.371Z,47.90
2023-04-19T09:57:13.791Z,49.57
2023-04-19T09:58:17.826Z,47.95
2023-04-19T09:59:21.597Z,47.08
2023-04-19T10:00:25.141Z,46.41
2023-04-19T10:01:28.970Z,48.90
2023-04-19T10:02:32.926Z,48.01
2023-04-19T10:03:36.656Z,48.14
2023-04-19T10:04:59.682Z,47.43
2023-04-19T10:05:46.433Z,48.16
2023-04-19T10:07:19.477Z,48.02
2023-04-19T10:07:59.850Z,47.03
2023-04-19T10:09:04.406Z,47.91
2023-04-19T10:10:19.104Z,48.90
2023-04-19T10:11:17.757Z,47.18
2023-04-19T10:12:46.292Z,48.14
2023-04-19T10:13:29.160Z,47.97
2023-04-19T10:14:35.558Z,47.11
2023-04-19T10:16:43.865Z,46.92
2023-04-19T10:17:47.557Z,47.20
2023-04-19T10:18:52.643Z,46.35
2023-04-19T10:20:01.533Z,46.33
2023-04-19T10:21:07.640Z,47.98
2023-04-19T10:22:12.126Z,47.99
2023-04-19T10:23:14.519Z,48.84
2023-04-19T10:24:18.965Z,47.62
2023-04-19T10:25:25.785Z,46.66
2023-04-19T10:26:28.377Z,47.67
2023-04-19T10:27:34.369Z,46.79
2023-04-19T10:28:37.427Z,45.93
2023-04-19T10:30:07.574Z,46.08
2023-04-19T10:32:31.062Z,45.40
2023-04-19T10:33:36.843Z,46.06
2023-04-19T10:34:42.988Z,44.39
2023-04-19T10:35:46.408Z,46.11
2023-04-19T10:36:49.809Z,44.35
2023-04-19T10:38:13.233Z,44.58
2023-04-19T10:39:39.568Z,45.54
2023-04-19T10:41:00.219Z,44.34
2023-04-19T10:42:02.716Z,45.38
2023-04-19T10:43:14.684Z,45.67
2023-04-19T10:44:17.077Z,45.96
2023-04-19T10:45:34.225Z,47.67
2023-04-19T10:46:41.885Z,46.36
2023-04-19T10:47:45.078Z,46.91
2023-04-19T10:49:00.840Z,44.91
2023-04-19T10:50:04.986Z,45.07
2023-04-19T10:51:17.399Z,45.94
2023-04-19T10:52:29.598Z,44.83
2023-04-19T10:53:48.461Z,45.32
2023-04-19T10:54:55.705Z,45.72
2023-04-19T10:55:58.431Z,45.99
2023-04-19T10:57:06.488Z,45.80
2023-04-19T10:58:08.781Z,45.19
2023-04-19T10:59:17.362Z,45.42
2023-04-19T11:00:25.329Z,45.70
2023-04-19T11:01:40.521Z,47.19
2023-04-19T11:02:43.870Z,46.87
2023-04-19T11:03:50.015Z,48.17
2023-04-19T11:04:58.250Z,46.43
2023-04-19T11:06:19.550Z,47.92
2023-04-19T11:07:21.848Z,48.40
2023-04-19T11:08:25.095Z,49.84
2023-04-19T11:09:40.974Z,50.66
2023-04-19T11:10:44.586Z,47.70
2023-04-19T11:11:47.288Z,48.88
2023-04-19T11:12:51.417Z,49.00
2023-04-19T11:13:57.264Z,49.79
2023-04-19T11:15:00.455Z,47.98
2023-04-19T11:16:10.023Z,47.92
2023-04-19T11:17:18.925Z,47.20
2023-04-19T11:18:21.165Z,47.23
2023-04-19T11:19:23.478Z,47.54
2023-04-19T11:20:25.816Z,48.66
2023-04-19T11:21:30.254Z,48.67
2023-04-19T11:22:46.778Z,47.88
2023-04-19T11:23:51.946Z,48.04
2023-04-19T11:24:55.448Z,47.32
2023-04-19T11:25:58.473Z,47.15
2023-04-19T11:27:01.426Z,48.90
2023-04-19T11:28:03.933Z,47.89
2023-04-19T11:29:06.244Z,46.81
2023-04-19T11:30:11.499Z,46.36
2023-04-19T11:31:15.179Z,47.35
2023-04-19T11:32:21.005Z,47.63
2023-04-19T11:33:25.126Z,47.29
2023-04-19T11:34:27.831Z,48.17
2023-04-19T11:35:29.956Z,49.17
2023-04-19T11:36:33.360Z,49.22
2023-04-19T11:37:36.754Z,49.89
2023-04-19T11:38:40.280Z,49.17
2023-04-19T11:39:46.936Z,49.68
2023-04-19T11:40:53.224Z,47.54
2023-04-19T11:41:56.365Z,49.52
2023-04-19T11:43:00.756Z,48.58
2023-04-19T11:44:03.124Z,48.09
2023-04-19T11:45:13.161Z,48.22
2023-04-19T11:46:12.301Z,49.36
2023-04-19T11:47:15.225Z,48.47
2023-04-19T11:48:17.607Z,47.94
2023-04-19T11:49:30.953Z,49.53
2023-04-19T11:50:38.681Z,48.17
2023-04-19T11:51:43.314Z,48.41
2023-04-19T11:52:50.548Z,48.59
2023-04-19T11:53:52.865Z,49.77
2023-04-19T11:54:55.157Z,50.12
2023-04-19T11:56:06.959Z,50.69
2023-04-19T11:57:09.752Z,51.34
2023-04-19T11:58:28.656Z,51.40
2023-04-19T11:59:36.918Z,51.33
2023-04-19T12:00:39.275Z,51.81
2023-04-19T12:01:41.986Z,51.68
2023-04-19T12:02:47.508Z,51.58
2023-04-19T12:03:56.097Z,51.51
2023-04-19T12:05:02.858Z,51.76
2023-04-19T12:06:07.896Z,52.17
2023-04-19T12:07:10.874Z,51.94
2023-04-19T12:08:13.170Z,52.42
2023-04-19T12:09:18.930Z,53.57
2023-04-19T12:10:21.918Z,53.07
2023-04-19T12:11:28.286Z,53.96
2023-04-19T12:12:34.060Z,54.83
2023-04-19T12:13:37.305Z,56.03
2023-04-19T12:14:41.548Z,55.89
2023-04-19T12:15:47.420Z,57.31
2023-04-19T12:17:11.673Z,56.48
2023-04-19T12:18:14.622Z,56.83
2023-04-19T12:19:19.805Z,56.80
2023-04-19T12:21:47.121Z,57.56
2023-04-19T12:22:50.311Z,56.82
2023-04-19T12:23:56.976Z,57.57
2023-04-19T12:24:59.520Z,57.12
2023-04-19T12:26:06.787Z,59.79
2023-04-19T12:27:14.699Z,58.79
2023-04-19T12:28:17.232Z,57.14
2023-04-19T12:29:19.852Z,57.75
2023-04-19T12:30:22.394Z,57.51
2023-04-19T12:31:25.371Z,57.57
2023-04-19T12:32:28.415Z,57.56
2023-04-19T12:33:30.821Z,57.27
2023-04-19T12:34:33.600Z,57.18
2023-04-19T12:35:36.923Z,56.81
2023-04-19T12:36:39.812Z,57.65
2023-04-19T12:37:42.590Z,57.14
2023-04-19T12:38:45.568Z,57.12
2023-04-19T12:39:48.337Z,56.90
2023-04-19T12:40:50.716Z,57.69
2023-04-19T12:41:55.058Z,57.67
2023-04-19T12:42:58.906Z,57.63
2023-04-19T12:44:01.989Z,57.56
2023-04-19T12:45:05.144Z,57.48
2023-04-19T12:46:08.105Z,57.68
2023-04-19T12:47:10.298Z,58.01
2023-04-19T12:48:12.570Z,57.89
2023-04-19T12:49:17.179Z,58.46
2023-04-19T12:50:19.616Z,57.48
2023-04-19T12:51:22.334Z,57.52
2023-04-19T12:52:24.597Z,58.20
2023-04-19T12:53:26.880Z,58.12
2023-04-19T12:54:29.229Z,57.94
2023-04-19T12:55:34.976Z,57.71
2023-04-19T12:56:37.832Z,56.75
2023-04-19T12:57:41.087Z,56.37
2023-04-19T12:58:44.522Z,57.07
2023-04-19T12:59:47.266Z,56.05
2023-04-19T13:00:50.432Z,57.15
2023-04-19T13:01:53.021Z,57.10
2023-04-19T13:02:55.908Z,57.51
2023-04-19T13:04:13.624Z,57.51
2023-04-19T13:05:06.969Z,56.35
2023-04-19T13:06:11.229Z,56.79
2023-04-19T13:07:14.256Z,56.16
2023-04-19T13:08:18.420Z,55.61
2023-04-19T13:09:20.814Z,56.83
2023-04-19T13:10:26.052Z,56.94
2023-04-19T13:11:28.475Z,57.36
2023-04-19T13:12:30.774Z,57.28
2023-04-19T13:13:34.301Z,57.00
2023-04-19T13:14:36.800Z,58.65
2023-04-19T13:15:41.519Z,57.11
2023-04-19T13:16:43.898Z,59.40
2023-04-19T13:17:46.598Z,56.89
2023-04-19T13:18:50.577Z,57.49
2023-04-19T13:19:53.355Z,58.16
2023-04-19T13:20:55.833Z,57.32
2023-04-19T13:21:59.576Z,56.71
2023-04-19T13:23:02.223Z,56.67
2023-04-19T13:24:05.180Z,56.97
2023-04-19T13:25:08.479Z,57.28
2023-04-19T13:26:12.320Z,57.43
2023-04-19T13:27:18.958Z,57.23
2023-04-19T13:28:21.355Z,57.34
2023-04-19T13:29:23.574Z,57.08
2023-04-19T13:30:27.366Z,57.20
2023-04-19T13:31:30.164Z,57.42
2023-04-19T13:32:32.902Z,57.43
2023-04-19T13:33:35.808Z,57.56
2023-04-19T13:34:40.195Z,57.23
2023-04-19T13:35:45.565Z,57.41
2023-04-19T13:36:47.831Z,57.94
2023-04-19T13:37:50.678Z,57.26
2023-04-19T13:38:53.487Z,57.68
2023-04-19T13:40:07.088Z,57.21
2023-04-19T13:41:00.317Z,57.55
2023-04-19T13:42:02.882Z,57.60
2023-04-19T13:43:05.454Z,57.80
2023-04-19T13:44:07.793Z,57.12
2023-04-19T13:45:11.102Z,57.47
2023-04-19T13:46:14.212Z,57.79
2023-04-19T13:47:16.484Z,57.79
2023-04-19T13:48:18.806Z,57.90
2023-04-19T13:49:21.251Z,57.81
2023-04-19T13:50:23.509Z,57.91
2023-04-19T13:51:27.982Z,57.60
2023-04-19T13:52:30.928Z,57.41
2023-04-19T13:53:34.272Z,57.46
2023-04-19T13:54:36.711Z,57.37
2023-04-19T13:55:39.625Z,57.13
2023-04-19T13:56:42.335Z,57.11